sensor_id;sensor_type;location;lat;lon;timestamp;temperature;humidity
60242;SHT30;46103;52.076;113.488;2022-12-08T00:00:11;-10.11;57.35
60242;SHT30;46103;52.076;113.488;2022-12-08T00:03:24;-10.12;57.40
60242;SHT30;46103;52.076;113.488;2022-12-08T00:06:39;-10.08;57.43
60242;SHT30;46103;52.076;113.488;2022-12-08T00:10:11;-10.12;57.33
60242;SHT30;46103;52.076;113.488;2022-12-08T00:13:45;-10.15;57.34
60242;SHT30;46103;52.076;113.488;2022-12-08T00:17:04;-10.15;57.40
60242;SHT30;46103;52.076;113.488;2022-12-08T00:20:21;-10.24;57.57
60242;SHT30;46103;52.076;113.488;2022-12-08T00:23:39;-10.26;57.69
60242;SHT30;46103;52.076;113.488;2022-12-08T00:27:00;-10.28;57.44
60242;SHT30;46103;52.076;113.488;2022-12-08T00:30:18;-10.28;57.31
60242;SHT30;46103;52.076;113.488;2022-12-08T00:33:37;-10.25;57.04
60242;SHT30;46103;52.076;113.488;2022-12-08T00:36:52;-10.22;57.08
60242;SHT30;46103;52.076;113.488;2022-12-08T00:40:12;-10.19;56.88
60242;SHT30;46103;52.076;113.488;2022-12-08T00:43:26;-10.18;56.57
60242;SHT30;46103;52.076;113.488;2022-12-08T00:46:40;-10.12;56.34
60242;SHT30;46103;52.076;113.488;2022-12-08T00:49:59;-10.11;56.23
60242;SHT30;46103;52.076;113.488;2022-12-08T00:53:15;-10.11;56.21
60242;SHT30;46103;52.076;113.488;2022-12-08T00:56:28;-10.11;56.35
60242;SHT30;46103;52.076;113.488;2022-12-08T00:59:41;-10.07;56.26
60242;SHT30;46103;52.076;113.488;2022-12-08T01:02:59;-10.07;56.24
60242;SHT30;46103;52.076;113.488;2022-12-08T01:06:16;-10.11;56.48
60242;SHT30;46103;52.076;113.488;2022-12-08T01:09:32;-10.09;56.39
60242;SHT30;46103;52.076;113.488;2022-12-08T01:12:46;-10.07;56.50
60242;SHT30;46103;52.076;113.488;2022-12-08T01:16:04;-9.99;56.33
60242;SHT30;46103;52.076;113.488;2022-12-08T01:19:20;-9.97;56.37
60242;SHT30;46103;52.076;113.488;2022-12-08T01:22:35;-9.93;56.42
60242;SHT30;46103;52.076;113.488;2022-12-08T01:25:48;-9.84;56.19
60242;SHT30;46103;52.076;113.488;2022-12-08T01:29:08;-9.74;56.12
60242;SHT30;46103;52.076;113.488;2022-12-08T01:32:21;-9.73;55.86
60242;SHT30;46103;52.076;113.488;2022-12-08T01:35:36;-9.64;55.94
60242;SHT30;46103;52.076;113.488;2022-12-08T01:38:55;-9.59;55.49
60242;SHT30;46103;52.076;113.488;2022-12-08T01:42:28;-9.54;55.16
60242;SHT30;46103;52.076;113.488;2022-12-08T01:45:42;-9.50;54.67
60242;SHT30;46103;52.076;113.488;2022-12-08T01:52:42;-9.57;55.03
60242;SHT30;46103;52.076;113.488;2022-12-08T01:56:13;-9.60;55.30
60242;SHT30;46103;52.076;113.488;2022-12-08T01:59:36;-9.61;55.39
60242;SHT30;46103;52.076;113.488;2022-12-08T02:06:10;-9.61;55.37
60242;SHT30;46103;52.076;113.488;2022-12-08T02:09:27;-9.54;55.52
60242;SHT30;46103;52.076;113.488;2022-12-08T02:12:43;-9.42;55.21
60242;SHT30;46103;52.076;113.488;2022-12-08T02:30:16;-8.80;53.29
60242;SHT30;46103;52.076;113.488;2022-12-08T02:33:54;-8.79;53.20
60242;SHT30;46103;52.076;113.488;2022-12-08T02:37:21;-8.77;53.30
60242;SHT30;46103;52.076;113.488;2022-12-08T02:44:40;-8.91;53.58
60242;SHT30;46103;52.076;113.488;2022-12-08T02:47:46;-8.94;53.84
60242;SHT30;46103;52.076;113.488;2022-12-08T02:50:50;-8.94;53.95
60242;SHT30;46103;52.076;113.488;2022-12-08T02:53:54;-8.97;54.05
60242;SHT30;46103;52.076;113.488;2022-12-08T02:57:37;-8.95;54.15
60242;SHT30;46103;52.076;113.488;2022-12-08T03:07:47;-8.94;54.20
60242;SHT30;46103;52.076;113.488;2022-12-08T03:14:02;-8.73;52.80
60242;SHT30;46103;52.076;113.488;2022-12-08T03:17:07;-8.71;52.24
60242;SHT30;46103;52.076;113.488;2022-12-08T03:20:15;-8.77;52.20
60242;SHT30;46103;52.076;113.488;2022-12-08T03:23:21;-8.79;52.06
60242;SHT30;46103;52.076;113.488;2022-12-08T03:26:30;-8.73;52.51
60242;SHT30;46103;52.076;113.488;2022-12-08T03:29:34;-8.60;52.17
60242;SHT30;46103;52.076;113.488;2022-12-08T03:32:49;-8.61;51.85
60242;SHT30;46103;52.076;113.488;2022-12-08T03:35:56;-8.56;51.79
60242;SHT30;46103;52.076;113.488;2022-12-08T03:39:01;-8.46;51.65
60242;SHT30;46103;52.076;113.488;2022-12-08T03:42:05;-8.49;51.62
60242;SHT30;46103;52.076;113.488;2022-12-08T03:45:09;-8.60;52.04
60242;SHT30;46103;52.076;113.488;2022-12-08T03:48:12;-8.64;52.32
60242;SHT30;46103;52.076;113.488;2022-12-08T03:51:17;-8.61;52.47
60242;SHT30;46103;52.076;113.488;2022-12-08T03:54:20;-8.61;52.20
60242;SHT30;46103;52.076;113.488;2022-12-08T03:57:24;-8.68;52.52
60242;SHT30;46103;52.076;113.488;2022-12-08T04:00:28;-8.68;52.50
60242;SHT30;46103;52.076;113.488;2022-12-08T04:03:31;-8.66;52.45
60242;SHT30;46103;52.076;113.488;2022-12-08T04:06:34;-8.63;52.04
60242;SHT30;46103;52.076;113.488;2022-12-08T04:09:37;-8.56;52.02
60242;SHT30;46103;52.076;113.488;2022-12-08T04:12:41;-8.49;51.74
60242;SHT30;46103;52.076;113.488;2022-12-08T04:15:45;-8.47;51.71
60242;SHT30;46103;52.076;113.488;2022-12-08T04:18:49;-8.40;51.72
60242;SHT30;46103;52.076;113.488;2022-12-08T04:21:54;-8.39;51.62
60242;SHT30;46103;52.076;113.488;2022-12-08T04:24:58;-8.28;51.22
60242;SHT30;46103;52.076;113.488;2022-12-08T04:28:03;-8.11;50.97
60242;SHT30;46103;52.076;113.488;2022-12-08T04:31:07;-7.97;50.15
60242;SHT30;46103;52.076;113.488;2022-12-08T04:34:11;-7.87;50.10
60242;SHT30;46103;52.076;113.488;2022-12-08T04:37:15;-7.71;49.89
60242;SHT30;46103;52.076;113.488;2022-12-08T04:40:19;-7.70;48.99
60242;SHT30;46103;52.076;113.488;2022-12-08T04:43:23;-7.74;49.14
60242;SHT30;46103;52.076;113.488;2022-12-08T04:46:26;-7.73;49.11
60242;SHT30;46103;52.076;113.488;2022-12-08T04:49:30;-7.70;49.06
60242;SHT30;46103;52.076;113.488;2022-12-08T04:52:34;-7.77;49.04
60242;SHT30;46103;52.076;113.488;2022-12-08T04:55:39;-7.70;49.00
60242;SHT30;46103;52.076;113.488;2022-12-08T04:58:43;-7.69;48.68
60242;SHT30;46103;52.076;113.488;2022-12-08T05:01:47;-7.60;48.55
60242;SHT30;46103;52.076;113.488;2022-12-08T05:04:51;-7.59;48.53
60242;SHT30;46103;52.076;113.488;2022-12-08T05:07:55;-7.52;48.73
60242;SHT30;46103;52.076;113.488;2022-12-08T05:11:07;-7.21;48.04
60242;SHT30;46103;52.076;113.488;2022-12-08T05:14:11;-7.04;47.26
60242;SHT30;46103;52.076;113.488;2022-12-08T05:17:17;-6.93;46.91
60242;SHT30;46103;52.076;113.488;2022-12-08T05:20:20;-6.84;46.46
60242;SHT30;46103;52.076;113.488;2022-12-08T05:23:25;-6.81;46.15
60242;SHT30;46103;52.076;113.488;2022-12-08T05:26:28;-6.93;46.29
60242;SHT30;46103;52.076;113.488;2022-12-08T05:29:32;-6.76;46.43
60242;SHT30;46103;52.076;113.488;2022-12-08T05:32:35;-6.60;45.85
60242;SHT30;46103;52.076;113.488;2022-12-08T05:35:39;-6.63;45.91
60242;SHT30;46103;52.076;113.488;2022-12-08T05:38:43;-6.53;45.63
60242;SHT30;46103;52.076;113.488;2022-12-08T05:41:47;-6.52;45.95
60242;SHT30;46103;52.076;113.488;2022-12-08T05:44:51;-6.53;45.73
60242;SHT30;46103;52.076;113.488;2022-12-08T05:47:55;-6.49;45.61
60242;SHT30;46103;52.076;113.488;2022-12-08T05:50:58;-6.32;45.90
60242;SHT30;46103;52.076;113.488;2022-12-08T05:54:02;-6.49;45.61
60242;SHT30;46103;52.076;113.488;2022-12-08T05:57:05;-6.62;46.38
60242;SHT30;46103;52.076;113.488;2022-12-08T06:00:09;-6.73;46.46
60242;SHT30;46103;52.076;113.488;2022-12-08T06:03:15;-6.90;47.36
60242;SHT30;46103;52.076;113.488;2022-12-08T06:06:20;-6.88;47.38
60242;SHT30;46103;52.076;113.488;2022-12-08T06:09:24;-6.97;47.22
60242;SHT30;46103;52.076;113.488;2022-12-08T06:12:28;-7.16;47.41
60242;SHT30;46103;52.076;113.488;2022-12-08T06:15:33;-7.21;47.90
60242;SHT30;46103;52.076;113.488;2022-12-08T06:18:37;-7.28;47.97
60242;SHT30;46103;52.076;113.488;2022-12-08T06:21:42;-7.33;48.27
60242;SHT30;46103;52.076;113.488;2022-12-08T06:24:47;-7.44;48.54
60242;SHT30;46103;52.076;113.488;2022-12-08T06:27:51;-7.54;48.93
60242;SHT30;46103;52.076;113.488;2022-12-08T06:30:55;-7.60;49.16
60242;SHT30;46103;52.076;113.488;2022-12-08T06:33:59;-7.61;49.21
60242;SHT30;46103;52.076;113.488;2022-12-08T06:37:03;-7.71;49.25
60242;SHT30;46103;52.076;113.488;2022-12-08T06:40:08;-7.76;49.72
60242;SHT30;46103;52.076;113.488;2022-12-08T06:43:12;-7.79;49.92
60242;SHT30;46103;52.076;113.488;2022-12-08T06:46:18;-7.76;49.85
60242;SHT30;46103;52.076;113.488;2022-12-08T06:49:22;-7.76;50.01
60242;SHT30;46103;52.076;113.488;2022-12-08T06:52:26;-7.86;50.16
60242;SHT30;46103;52.076;113.488;2022-12-08T06:55:31;-7.86;50.60
60242;SHT30;46103;52.076;113.488;2022-12-08T06:58:55;-7.87;50.36
60242;SHT30;46103;52.076;113.488;2022-12-08T07:01:58;-7.90;50.62
60242;SHT30;46103;52.076;113.488;2022-12-08T07:05:02;-7.90;50.70
60242;SHT30;46103;52.076;113.488;2022-12-08T07:08:07;-7.98;51.05
60242;SHT30;46103;52.076;113.488;2022-12-08T07:11:12;-8.02;50.98
60242;SHT30;46103;52.076;113.488;2022-12-08T07:14:22;-8.09;51.38
60242;SHT30;46103;52.076;113.488;2022-12-08T07:17:29;-8.15;51.87
60242;SHT30;46103;52.076;113.488;2022-12-08T07:20:32;-8.17;51.84
60242;SHT30;46103;52.076;113.488;2022-12-08T07:23:38;-8.26;52.18
60242;SHT30;46103;52.076;113.488;2022-12-08T07:26:43;-8.32;52.65
60242;SHT30;46103;52.076;113.488;2022-12-08T07:29:46;-8.39;52.82
60242;SHT30;46103;52.076;113.488;2022-12-08T07:32:50;-8.42;53.22
60242;SHT30;46103;52.076;113.488;2022-12-08T07:36:01;-8.40;53.24
60242;SHT30;46103;52.076;113.488;2022-12-08T07:39:08;-8.28;56.05
60242;SHT30;46103;52.076;113.488;2022-12-08T07:42:11;-8.22;56.55
60242;SHT30;46103;52.076;113.488;2022-12-08T07:45:20;-8.19;54.72
60242;SHT30;46103;52.076;113.488;2022-12-08T07:48:31;-8.22;53.99
60242;SHT30;46103;52.076;113.488;2022-12-08T07:51:35;-8.29;54.20
60242;SHT30;46103;52.076;113.488;2022-12-08T07:54:38;-8.32;55.61
60242;SHT30;46103;52.076;113.488;2022-12-08T07:57:43;-8.46;53.21
60242;SHT30;46103;52.076;113.488;2022-12-08T08:00:46;-8.54;53.60
60242;SHT30;46103;52.076;113.488;2022-12-08T08:03:50;-8.57;53.41
60242;SHT30;46103;52.076;113.488;2022-12-08T08:06:54;-8.60;53.63
60242;SHT30;46103;52.076;113.488;2022-12-08T08:09:58;-8.66;54.16
60242;SHT30;46103;52.076;113.488;2022-12-08T08:13:02;-8.77;54.80
60242;SHT30;46103;52.076;113.488;2022-12-08T08:16:07;-8.80;54.89
60242;SHT30;46103;52.076;113.488;2022-12-08T08:19:11;-8.85;55.05
60242;SHT30;46103;52.076;113.488;2022-12-08T08:22:15;-8.85;55.09
60242;SHT30;46103;52.076;113.488;2022-12-08T08:25:20;-8.87;55.60
60242;SHT30;46103;52.076;113.488;2022-12-08T08:28:30;-8.88;55.51
60242;SHT30;46103;52.076;113.488;2022-12-08T08:31:33;-8.93;55.81
60242;SHT30;46103;52.076;113.488;2022-12-08T08:34:36;-9.00;55.89
60242;SHT30;46103;52.076;113.488;2022-12-08T08:37:43;-9.04;55.94
60242;SHT30;46103;52.076;113.488;2022-12-08T08:40:50;-9.00;56.05
60242;SHT30;46103;52.076;113.488;2022-12-08T08:43:54;-9.02;56.03
60242;SHT30;46103;52.076;113.488;2022-12-08T08:46:57;-9.05;56.29
60242;SHT30;46103;52.076;113.488;2022-12-08T08:50:01;-9.07;56.36
60242;SHT30;46103;52.076;113.488;2022-12-08T08:53:06;-9.15;56.79
60242;SHT30;46103;52.076;113.488;2022-12-08T08:56:12;-9.15;56.85
60242;SHT30;46103;52.076;113.488;2022-12-08T08:59:17;-9.25;57.17
60242;SHT30;46103;52.076;113.488;2022-12-08T09:02:24;-9.23;57.31
60242;SHT30;46103;52.076;113.488;2022-12-08T09:05:28;-9.29;57.41
60242;SHT30;46103;52.076;113.488;2022-12-08T09:08:34;-9.28;57.36
60242;SHT30;46103;52.076;113.488;2022-12-08T09:11:40;-9.29;57.26
60242;SHT30;46103;52.076;113.488;2022-12-08T09:14:44;-9.32;57.74
60242;SHT30;46103;52.076;113.488;2022-12-08T09:17:47;-9.38;57.90
60242;SHT30;46103;52.076;113.488;2022-12-08T09:20:52;-9.38;58.19
60242;SHT30;46103;52.076;113.488;2022-12-08T09:23:58;-9.36;57.75
60242;SHT30;46103;52.076;113.488;2022-12-08T09:27:01;-9.35;57.69
60242;SHT30;46103;52.076;113.488;2022-12-08T09:30:05;-9.32;57.67
60242;SHT30;46103;52.076;113.488;2022-12-08T09:33:09;-9.21;61.63
60242;SHT30;46103;52.076;113.488;2022-12-08T09:36:13;-9.05;60.94
60242;SHT30;46103;52.076;113.488;2022-12-08T09:39:19;-9.01;60.39
60242;SHT30;46103;52.076;113.488;2022-12-08T09:42:37;-9.01;59.97
60242;SHT30;46103;52.076;113.488;2022-12-08T09:45:45;-9.00;60.42
60242;SHT30;46103;52.076;113.488;2022-12-08T09:48:52;-9.07;59.75
60242;SHT30;46103;52.076;113.488;2022-12-08T09:51:59;-9.08;59.41
60242;SHT30;46103;52.076;113.488;2022-12-08T09:55:21;-9.19;59.40
60242;SHT30;46103;52.076;113.488;2022-12-08T09:59:02;-9.43;58.39
60242;SHT30;46103;52.076;113.488;2022-12-08T10:02:28;-9.52;58.56
60242;SHT30;46103;52.076;113.488;2022-12-08T10:05:36;-9.57;58.63
60242;SHT30;46103;52.076;113.488;2022-12-08T10:08:50;-9.66;58.75
60242;SHT30;46103;52.076;113.488;2022-12-08T10:12:53;-9.75;59.25
60242;SHT30;46103;52.076;113.488;2022-12-08T10:19:22;-9.77;59.73
60242;SHT30;46103;52.076;113.488;2022-12-08T10:22:31;-9.77;60.09
60242;SHT30;46103;52.076;113.488;2022-12-08T10:25:46;-9.84;60.22
60242;SHT30;46103;52.076;113.488;2022-12-08T10:28:50;-9.84;60.30
60242;SHT30;46103;52.076;113.488;2022-12-08T10:31:58;-9.82;59.91
60242;SHT30;46103;52.076;113.488;2022-12-08T10:35:13;-9.88;59.78
60242;SHT30;46103;52.076;113.488;2022-12-08T10:38:32;-9.88;59.71
60242;SHT30;46103;52.076;113.488;2022-12-08T10:41:36;-9.90;59.69
60242;SHT30;46103;52.076;113.488;2022-12-08T10:45:13;-9.90;59.50
60242;SHT30;46103;52.076;113.488;2022-12-08T10:48:21;-9.87;59.48
60242;SHT30;46103;52.076;113.488;2022-12-08T10:51:37;-9.88;59.48
60242;SHT30;46103;52.076;113.488;2022-12-08T10:54:41;-9.87;59.37
60242;SHT30;46103;52.076;113.488;2022-12-08T10:57:46;-9.84;59.18
60242;SHT30;46103;52.076;113.488;2022-12-08T11:04:17;-9.85;59.14
60242;SHT30;46103;52.076;113.488;2022-12-08T11:07:21;-9.90;59.18
60242;SHT30;46103;52.076;113.488;2022-12-08T11:10:36;-9.95;59.49
60242;SHT30;46103;52.076;113.488;2022-12-08T11:13:44;-9.98;59.54
60242;SHT30;46103;52.076;113.488;2022-12-08T11:16:52;-10.02;59.75
60242;SHT30;46103;52.076;113.488;2022-12-08T11:20:21;-10.01;59.68
60242;SHT30;46103;52.076;113.488;2022-12-08T11:23:26;-10.02;59.70
60242;SHT30;46103;52.076;113.488;2022-12-08T11:26:32;-10.05;59.68
60242;SHT30;46103;52.076;113.488;2022-12-08T11:29:40;-10.01;59.60
60242;SHT30;46103;52.076;113.488;2022-12-08T11:32:50;-10.09;59.79
60242;SHT30;46103;52.076;113.488;2022-12-08T11:36:06;-10.15;60.13
60242;SHT30;46103;52.076;113.488;2022-12-08T11:39:11;-10.21;60.35
60242;SHT30;46103;52.076;113.488;2022-12-08T11:42:19;-10.18;60.38
60242;SHT30;46103;52.076;113.488;2022-12-08T11:45:28;-10.15;60.33
60242;SHT30;46103;52.076;113.488;2022-12-08T11:51:52;-10.12;60.10
60242;SHT30;46103;52.076;113.488;2022-12-08T11:55:03;-10.09;60.02
60242;SHT30;46103;52.076;113.488;2022-12-08T11:58:19;-10.11;59.88
60242;SHT30;46103;52.076;113.488;2022-12-08T12:01:26;-10.09;59.91
60242;SHT30;46103;52.076;113.488;2022-12-08T12:04:38;-10.07;59.77
60242;SHT30;46103;52.076;113.488;2022-12-08T12:17:46;-10.24;60.35
60242;SHT30;46103;52.076;113.488;2022-12-08T12:20:52;-10.28;60.40
60242;SHT30;46103;52.076;113.488;2022-12-08T12:24:02;-10.28;60.55
60242;SHT30;46103;52.076;113.488;2022-12-08T12:27:37;-10.24;60.47
60242;SHT30;46103;52.076;113.488;2022-12-08T12:31:17;-10.21;60.35
60242;SHT30;46103;52.076;113.488;2022-12-08T12:34:25;-10.12;60.26
60242;SHT30;46103;52.076;113.488;2022-12-08T12:37:40;-10.09;60.20
60242;SHT30;46103;52.076;113.488;2022-12-08T12:40:45;-10.07;60.04
60242;SHT30;46103;52.076;113.488;2022-12-08T12:50:51;-10.01;59.99
60242;SHT30;46103;52.076;113.488;2022-12-08T12:54:27;-9.99;59.95
60242;SHT30;46103;52.076;113.488;2022-12-08T12:57:37;-9.99;59.86
60242;SHT30;46103;52.076;113.488;2022-12-08T13:00:41;-9.99;59.82
60242;SHT30;46103;52.076;113.488;2022-12-08T13:03:47;-10.04;59.96
60242;SHT30;46103;52.076;113.488;2022-12-08T13:06:52;-9.99;59.98
60242;SHT30;46103;52.076;113.488;2022-12-08T13:10:02;-10.04;59.89
60242;SHT30;46103;52.076;113.488;2022-12-08T13:16:24;-10.09;59.91
60242;SHT30;46103;52.076;113.488;2022-12-08T13:19:30;-10.14;60.03
60242;SHT30;46103;52.076;113.488;2022-12-08T13:26:16;-10.25;60.40
60242;SHT30;46103;52.076;113.488;2022-12-08T13:29:24;-10.32;60.60
60242;SHT30;46103;52.076;113.488;2022-12-08T13:35:59;-10.36;60.64
60242;SHT30;46103;52.076;113.488;2022-12-08T13:39:04;-10.37;60.73
60242;SHT30;46103;52.076;113.488;2022-12-08T13:42:39;-10.40;60.91
60242;SHT30;46103;52.076;113.488;2022-12-08T13:45:44;-10.42;60.95
60242;SHT30;46103;52.076;113.488;2022-12-08T13:49:14;-10.46;61.06
60242;SHT30;46103;52.076;113.488;2022-12-08T13:52:47;-10.56;61.27
60242;SHT30;46103;52.076;113.488;2022-12-08T13:56:14;-10.58;61.53
60242;SHT30;46103;52.076;113.488;2022-12-08T13:59:43;-10.61;61.62
60242;SHT30;46103;52.076;113.488;2022-12-08T14:02:48;-10.64;61.77
60242;SHT30;46103;52.076;113.488;2022-12-08T14:05:53;-10.67;61.96
60242;SHT30;46103;52.076;113.488;2022-12-08T14:09:22;-10.73;62.15
60242;SHT30;46103;52.076;113.488;2022-12-08T14:12:27;-10.71;62.13
60242;SHT30;46103;52.076;113.488;2022-12-08T14:15:34;-10.77;62.30
60242;SHT30;46103;52.076;113.488;2022-12-08T14:18:39;-10.81;62.39
60242;SHT30;46103;52.076;113.488;2022-12-08T14:25:14;-10.80;62.27
60242;SHT30;46103;52.076;113.488;2022-12-08T14:28:18;-10.87;62.63
60242;SHT30;46103;52.076;113.488;2022-12-08T14:31:24;-10.87;62.65
60242;SHT30;46103;52.076;113.488;2022-12-08T14:34:34;-10.83;62.66
60242;SHT30;46103;52.076;113.488;2022-12-08T14:37:45;-10.85;62.58
60242;SHT30;46103;52.076;113.488;2022-12-08T14:41:00;-10.87;62.56
60242;SHT30;46103;52.076;113.488;2022-12-08T14:44:22;-10.87;62.50
60242;SHT30;46103;52.076;113.488;2022-12-08T14:47:31;-10.88;62.51
60242;SHT30;46103;52.076;113.488;2022-12-08T14:50:45;-10.89;62.66
60242;SHT30;46103;52.076;113.488;2022-12-08T14:53:57;-10.89;62.63
60242;SHT30;46103;52.076;113.488;2022-12-08T14:57:02;-10.87;62.44
60242;SHT30;46103;52.076;113.488;2022-12-08T15:00:08;-10.87;62.39
60242;SHT30;46103;52.076;113.488;2022-12-08T15:03:14;-10.83;62.27
60242;SHT30;46103;52.076;113.488;2022-12-08T15:06:20;-10.81;62.17
60242;SHT30;46103;52.076;113.488;2022-12-08T15:09:29;-10.81;62.29
60242;SHT30;46103;52.076;113.488;2022-12-08T15:12:33;-10.80;62.27
60242;SHT30;46103;52.076;113.488;2022-12-08T15:19:31;-10.88;62.39
60242;SHT30;46103;52.076;113.488;2022-12-08T15:22:34;-10.94;62.51
60242;SHT30;46103;52.076;113.488;2022-12-08T15:25:38;-10.97;62.61
60242;SHT30;46103;52.076;113.488;2022-12-08T15:28:45;-10.97;62.64
60242;SHT30;46103;52.076;113.488;2022-12-08T15:31:51;-10.98;62.78
60242;SHT30;46103;52.076;113.488;2022-12-08T15:34:54;-10.94;62.65
60242;SHT30;46103;52.076;113.488;2022-12-08T15:37:57;-10.89;62.32
60242;SHT30;46103;52.076;113.488;2022-12-08T15:41:02;-10.91;62.48
60242;SHT30;46103;52.076;113.488;2022-12-08T15:44:05;-10.97;62.51
60242;SHT30;46103;52.076;113.488;2022-12-08T15:47:18;-10.95;62.47
60242;SHT30;46103;52.076;113.488;2022-12-08T15:50:22;-11.04;62.65
60242;SHT30;46103;52.076;113.488;2022-12-08T15:53:26;-11.11;62.81
60242;SHT30;46103;52.076;113.488;2022-12-08T15:56:30;-11.21;63.15
60242;SHT30;46103;52.076;113.488;2022-12-08T15:59:39;-11.25;63.37
60242;SHT30;46103;52.076;113.488;2022-12-08T16:02:41;-11.29;63.57
60242;SHT30;46103;52.076;113.488;2022-12-08T16:06:05;-11.33;63.67
60242;SHT30;46103;52.076;113.488;2022-12-08T16:09:40;-11.35;63.57
60242;SHT30;46103;52.076;113.488;2022-12-08T16:12:45;-11.33;63.49
60242;SHT30;46103;52.076;113.488;2022-12-08T16:16:28;-11.29;63.30
60242;SHT30;46103;52.076;113.488;2022-12-08T16:19:32;-11.29;63.19
60242;SHT30;46103;52.076;113.488;2022-12-08T16:22:35;-11.25;63.01
60242;SHT30;46103;52.076;113.488;2022-12-08T16:25:59;-11.21;62.84
60242;SHT30;46103;52.076;113.488;2022-12-08T16:29:22;-11.16;62.69
60242;SHT30;46103;52.076;113.488;2022-12-08T16:32:27;-11.16;62.53
60242;SHT30;46103;52.076;113.488;2022-12-08T16:35:30;-11.14;62.49
60242;SHT30;46103;52.076;113.488;2022-12-08T16:38:44;-11.21;62.60
60242;SHT30;46103;52.076;113.488;2022-12-08T16:41:47;-11.23;62.78
60242;SHT30;46103;52.076;113.488;2022-12-08T16:45:25;-11.29;62.94
60242;SHT30;46103;52.076;113.488;2022-12-08T16:48:29;-11.32;63.05
60242;SHT30;46103;52.076;113.488;2022-12-08T16:51:33;-11.29;63.12
60242;SHT30;46103;52.076;113.488;2022-12-08T16:54:37;-11.35;63.35
60242;SHT30;46103;52.076;113.488;2022-12-08T16:57:42;-11.35;63.38
60242;SHT30;46103;52.076;113.488;2022-12-08T17:00:46;-11.36;63.36
60242;SHT30;46103;52.076;113.488;2022-12-08T17:03:50;-11.40;63.38
60242;SHT30;46103;52.076;113.488;2022-12-08T17:07:14;-11.49;63.66
60242;SHT30;46103;52.076;113.488;2022-12-08T17:10:21;-11.52;63.76
60242;SHT30;46103;52.076;113.488;2022-12-08T17:13:25;-11.54;63.65
60242;SHT30;46103;52.076;113.488;2022-12-08T17:16:29;-11.54;63.47
60242;SHT30;46103;52.076;113.488;2022-12-08T17:19:33;-11.52;63.43
60242;SHT30;46103;52.076;113.488;2022-12-08T17:22:37;-11.50;63.43
60242;SHT30;46103;52.076;113.488;2022-12-08T17:25:41;-11.46;63.35
60242;SHT30;46103;52.076;113.488;2022-12-08T17:28:45;-11.43;63.34
60242;SHT30;46103;52.076;113.488;2022-12-08T17:32:04;-11.36;63.18
60242;SHT30;46103;52.076;113.488;2022-12-08T17:35:08;-11.35;63.03
60242;SHT30;46103;52.076;113.488;2022-12-08T17:38:12;-11.42;63.17
60242;SHT30;46103;52.076;113.488;2022-12-08T17:41:16;-11.40;63.08
60242;SHT30;46103;52.076;113.488;2022-12-08T17:44:20;-11.39;62.93
60242;SHT30;46103;52.076;113.488;2022-12-08T17:47:24;-11.38;62.85
60242;SHT30;46103;52.076;113.488;2022-12-08T17:50:27;-11.38;62.84
60242;SHT30;46103;52.076;113.488;2022-12-08T17:53:30;-11.35;62.67
60242;SHT30;46103;52.076;113.488;2022-12-08T17:56:39;-11.35;62.61
60242;SHT30;46103;52.076;113.488;2022-12-08T17:59:43;-11.38;62.61
60242;SHT30;46103;52.076;113.488;2022-12-08T18:02:46;-11.38;62.53
60242;SHT30;46103;52.076;113.488;2022-12-08T18:05:50;-11.39;62.61
60242;SHT30;46103;52.076;113.488;2022-12-08T18:08:54;-11.44;62.78
60242;SHT30;46103;52.076;113.488;2022-12-08T18:11:58;-11.50;62.87
60242;SHT30;46103;52.076;113.488;2022-12-08T18:15:03;-11.52;63.19
60242;SHT30;46103;52.076;113.488;2022-12-08T18:18:07;-11.54;63.16
60242;SHT30;46103;52.076;113.488;2022-12-08T18:21:11;-11.64;63.44
60242;SHT30;46103;52.076;113.488;2022-12-08T18:24:22;-11.69;63.56
60242;SHT30;46103;52.076;113.488;2022-12-08T18:27:26;-11.67;63.62
60242;SHT30;46103;52.076;113.488;2022-12-08T18:30:30;-11.67;63.62
60242;SHT30;46103;52.076;113.488;2022-12-08T18:33:34;-11.66;63.61
60242;SHT30;46103;52.076;113.488;2022-12-08T18:36:38;-11.70;63.68
60242;SHT30;46103;52.076;113.488;2022-12-08T18:39:41;-11.73;63.86
60242;SHT30;46103;52.076;113.488;2022-12-08T18:42:45;-11.71;63.73
60242;SHT30;46103;52.076;113.488;2022-12-08T18:45:49;-11.69;63.75
60242;SHT30;46103;52.076;113.488;2022-12-08T18:48:52;-11.69;63.72
60242;SHT30;46103;52.076;113.488;2022-12-08T18:51:56;-11.73;63.74
60242;SHT30;46103;52.076;113.488;2022-12-08T18:55:00;-11.74;63.90
60242;SHT30;46103;52.076;113.488;2022-12-08T18:58:08;-11.71;63.97
60242;SHT30;46103;52.076;113.488;2022-12-08T19:01:13;-11.78;63.99
60242;SHT30;46103;52.076;113.488;2022-12-08T19:04:17;-11.77;64.15
60242;SHT30;46103;52.076;113.488;2022-12-08T19:07:30;-11.75;64.09
60242;SHT30;46103;52.076;113.488;2022-12-08T19:10:35;-11.74;64.21
60242;SHT30;46103;52.076;113.488;2022-12-08T19:13:42;-11.64;63.55
60242;SHT30;46103;52.076;113.488;2022-12-08T19:16:45;-11.64;63.49
60242;SHT30;46103;52.076;113.488;2022-12-08T19:19:48;-11.63;63.40
60242;SHT30;46103;52.076;113.488;2022-12-08T19:22:52;-11.63;63.28
60242;SHT30;46103;52.076;113.488;2022-12-08T19:25:55;-11.63;63.30
60242;SHT30;46103;52.076;113.488;2022-12-08T19:28:59;-11.63;63.36
60242;SHT30;46103;52.076;113.488;2022-12-08T19:32:02;-11.64;63.27
60242;SHT30;46103;52.076;113.488;2022-12-08T19:35:07;-11.60;63.28
60242;SHT30;46103;52.076;113.488;2022-12-08T19:38:11;-11.56;63.07
60242;SHT30;46103;52.076;113.488;2022-12-08T19:41:15;-11.56;62.84
60242;SHT30;46103;52.076;113.488;2022-12-08T19:44:37;-11.53;62.84
60242;SHT30;46103;52.076;113.488;2022-12-08T19:47:56;-11.56;62.61
60242;SHT30;46103;52.076;113.488;2022-12-08T19:51:00;-11.60;62.77
60242;SHT30;46103;52.076;113.488;2022-12-08T19:54:04;-11.64;62.83
60242;SHT30;46103;52.076;113.488;2022-12-08T19:57:07;-11.63;62.89
60242;SHT30;46103;52.076;113.488;2022-12-08T20:00:13;-11.61;62.73
60242;SHT30;46103;52.076;113.488;2022-12-08T20:03:19;-11.64;62.72
60242;SHT30;46103;52.076;113.488;2022-12-08T20:06:25;-11.66;62.75
60242;SHT30;46103;52.076;113.488;2022-12-08T20:09:29;-11.64;62.81
60242;SHT30;46103;52.076;113.488;2022-12-08T20:12:33;-11.60;62.70
60242;SHT30;46103;52.076;113.488;2022-12-08T20:15:36;-11.59;62.60
60242;SHT30;46103;52.076;113.488;2022-12-08T20:18:40;-11.59;62.42
60242;SHT30;46103;52.076;113.488;2022-12-08T20:21:44;-11.60;62.51
60242;SHT30;46103;52.076;113.488;2022-12-08T20:24:47;-11.59;62.38
60242;SHT30;46103;52.076;113.488;2022-12-08T20:28:01;-11.64;62.46